EST,Max TemperatureF,Mean TemperatureF,Min TemperatureF,Max Dew PointF,MeanDew PointF,Min DewpointF,Max Humidity, Mean Humidity, Min Humidity, Max Sea Level PressureIn, Mean Sea Level PressureIn, Min Sea Level PressureIn, Max VisibilityMiles, Mean VisibilityMiles, Min VisibilityMiles, Max Wind SpeedMPH, Mean Wind SpeedMPH, Max Gust SpeedMPH,PrecipitationIn, CloudCover, Events, WindDirDegrees
2012-11-1,57,45,32,34,33,31,89,66,43,29.84,29.77,29.74,10,10,10,18,7,25,0.00,5,,266
2012-11-2,60,46,31,34,28,23,92,59,26,29.97,29.87,29.83,10,10,10,23,5,30,T,3,,278
2012-11-3,61,51,40,35,30,27,70,50,29,30.10,30.04,29.98,10,10,10,18,5,23,0.10,1,Rain,327
2012-11-4,55,47,38,42,38,36,92,73,54,30.08,30.03,29.98,10,10,5,8,3,14,0.03,5,Rain,57
2012-11-5,56,44,31,35,31,27,92,64,35,30.12,30.07,30.01,10,10,10,9,3,13,0.00,1,,7
2012-11-6,43,37,30,30,28,26,85,71,57,30.17,30.08,29.95,10,10,10,12,5,14,0.00,4,,31
2012-11-7,53,43,33,33,30,27,89,65,41,29.94,29.91,29.85,10,10,10,15,5,20,0.00,6,,30
2012-11-8,62,46,30,33,22,16,92,55,17,30.12,30.03,29.95,10,10,8,17,6,22,0.00,0,,301
2012-11-9,65,48,30,31,27,18,78,51,24,30.25,30.20,30.12,10,10,10,10,4,15,0.00,0,,266
2012-11-10,75,53,30,35,31,27,92,55,18,30.36,30.29,30.24,10,10,9,8,2,14,0.00,0,,220
2012-11-11,75,55,34,50,40,31,89,58,27,30.46,30.40,30.35,10,10,10,16,3,23,0.00,0,,207
2012-11-12,69,58,47,60,53,46,96,79,61,30.39,30.31,30.14,10,6,0,17,2,22,0.05,4,Fog-Rain,179
2012-11-13,65,50,35,59,40,31,92,70,47,30.44,30.31,30.14,10,10,5,20,7,25,0.16,5,Rain,4
2012-11-14,50,41,31,30,27,24,85,66,46,30.52,30.45,30.40,10,10,10,18,7,24,0.00,0,,45
2012-11-15,48,41,34,36,32,26,76,65,53,30.38,30.32,30.27,10,10,10,13,5,16,0.00,5,,24
2012-11-16,56,43,30,36,31,27,92,64,35,30.41,30.32,30.28,10,10,7,15,5,20,0.00,1,,28
2012-11-17,57,45,32,31,26,22,78,53,27,30.53,30.48,30.42,10,10,10,18,9,23,0.00,0,,37
2012-11-18,57,51,44,40,37,33,65,60,54,30.52,30.47,30.40,10,10,10,18,12,24,0.00,7,,35
2012-11-19,57,48,39,40,39,36,85,68,51,30.38,30.31,30.20,10,10,10,17,8,21,0.00,6,,29
2012-11-20,59,47,34,41,38,33,92,72,51,30.22,30.14,30.06,10,10,8,6,1,,0.00,2,,43
2012-11-21,62,46,30,40,31,28,96,64,32,30.21,30.15,30.11,10,7,2,14,3,18,0.00,0,,24
2012-11-22,62,45,28,33,27,24,92,58,23,30.26,30.21,30.16,10,10,10,13,3,16,0.00,0,,22
2012-11-23,67,47,26,39,31,23,85,59,32,30.15,29.99,29.86,10,10,10,18,6,24,0.00,1,,240
2012-11-24,50,37,24,27,19,15,54,41,28,30.12,30.02,29.90,10,10,10,20,9,32,0.00,0,,320
2012-11-25,52,35,18,20,17,14,84,54,24,30.16,30.08,29.99,10,10,10,15,5,20,0.00,0,,214
2012-11-26,65,46,27,28,23,19,69,45,21,30.19,30.14,30.06,10,10,10,10,2,20,0.00,0,,250
2012-11-27,50,45,39,44,38,29,89,73,57,30.25,30.16,30.11,10,9,4,9,3,12,0.14,8,Rain,36
2012-11-28,54,42,30,39,31,19,96,62,28,30.39,30.31,30.25,10,8,2,9,3,,0.00,4,,332
2012-11-29,54,38,22,26,23,19,92,62,32,30.48,30.41,30.36,10,10,9,12,3,15,0.00,0,,234
2012-11-30,63,45,27,34,30,24,92,63,34,30.39,30.33,30.27,10,8,2,8,3,,0.00,0,,225